createdAt,value
2019-03-28T00:03:11.752Z,8.03
2019-03-28T00:08:06.327Z,8.47
2019-03-28T00:13:01.309Z,8.27
2019-03-28T00:17:55.902Z,8.93
2019-03-28T00:23:07.889Z,9.13
2019-03-28T00:28:02.473Z,8.93
2019-03-28T00:32:57.075Z,8.73
2019-03-28T00:37:51.642Z,8.37
2019-03-28T00:42:46.250Z,9.10
2019-03-28T00:47:41.857Z,8.57
2019-03-28T00:52:36.458Z,8.70
2019-03-28T00:57:31.031Z,8.93
2019-03-28T01:02:25.644Z,9.20
2019-03-28T01:07:20.369Z,11.37
2019-03-28T01:12:15.403Z,9.97
2019-03-28T01:17:10.003Z,10.40
2019-03-28T01:22:04.625Z,10.07
2019-03-28T01:26:59.211Z,10.10
2019-03-28T01:31:53.792Z,9.83
2019-03-28T01:36:48.400Z,10.67
2019-03-28T01:41:43.005Z,9.97
2019-03-28T01:46:37.590Z,10.77
2019-03-28T01:51:33.016Z,10.33
2019-03-28T01:56:27.640Z,10.07
2019-03-28T02:01:22.327Z,11.23
2019-03-28T02:07:29.186Z,11.00
2019-03-28T02:12:23.748Z,11.43
2019-03-28T02:17:18.329Z,10.73
2019-03-28T02:22:12.913Z,10.73
2019-03-28T02:27:07.613Z,11.27
2019-03-28T02:32:02.165Z,10.67
2019-03-28T02:36:56.800Z,11.53
2019-03-28T02:41:51.381Z,11.53
2019-03-28T02:46:45.970Z,11.00
2019-03-28T02:51:40.539Z,11.17
2019-03-28T02:56:35.904Z,12.00
2019-03-28T03:01:30.523Z,10.87
2019-03-28T03:06:25.650Z,12.50
2019-03-28T03:11:20.228Z,11.97
2019-03-28T03:16:14.850Z,11.90
2019-03-28T03:21:10.001Z,12.27
2019-03-28T03:26:05.224Z,13.30
2019-03-28T03:30:59.839Z,13.37
2019-03-28T03:35:54.418Z,13.10
2019-03-28T03:40:49.066Z,11.97
2019-03-28T03:45:44.208Z,13.43
2019-03-28T03:50:38.801Z,12.20
2019-03-28T03:55:33.409Z,14.20
2019-03-28T04:00:35.101Z,13.67
2019-03-28T04:05:31.633Z,13.30
2019-03-28T04:10:26.250Z,12.93
2019-03-28T04:15:21.011Z,13.27
2019-03-28T04:20:15.612Z,15.03
2019-03-28T04:25:10.428Z,12.90
2019-03-28T04:30:09.541Z,14.67
2019-03-28T04:35:05.793Z,13.97
2019-03-28T04:40:00.502Z,18.77
2019-03-28T04:44:55.128Z,18.13
2019-03-28T04:49:49.724Z,19.23
2019-03-28T04:54:44.420Z,20.43
2019-03-28T04:59:39.007Z,21.17
2019-03-28T05:04:33.642Z,21.27
2019-03-28T05:09:28.228Z,20.73
2019-03-28T05:14:22.843Z,21.93
2019-03-28T05:19:17.507Z,19.90
2019-03-28T05:24:12.124Z,19.80
2019-03-28T05:29:06.714Z,20.13
2019-03-28T05:34:01.326Z,19.50
2019-03-28T05:38:55.919Z,18.77
2019-03-28T05:43:50.540Z,20.57
2019-03-28T05:48:45.195Z,21.43
2019-03-28T05:53:39.803Z,21.90
2019-03-28T05:58:34.382Z,20.57
2019-03-28T06:03:28.974Z,21.60
2019-03-28T06:08:23.555Z,20.40
2019-03-28T06:13:18.146Z,21.03
2019-03-28T06:18:12.731Z,20.80
2019-03-28T06:23:07.349Z,20.70
2019-03-28T06:28:01.934Z,21.07
2019-03-28T06:32:58.870Z,21.43
2019-03-28T06:37:52.889Z,19.60
2019-03-28T06:42:47.492Z,19.67
2019-03-28T06:47:42.087Z,17.53
2019-03-28T06:52:36.724Z,17.13
2019-03-28T06:57:31.371Z,17.87
2019-03-28T07:02:26.000Z,17.03
2019-03-28T07:07:21.485Z,16.40
2019-03-28T07:12:20.568Z,15.40
2019-03-28T07:17:15.724Z,15.47
2019-03-28T07:22:10.532Z,15.80
2019-03-28T07:27:05.183Z,14.57
2019-03-28T07:31:59.804Z,14.40
2019-03-28T07:36:54.385Z,14.47
2019-03-28T07:41:49.001Z,13.90
2019-03-28T07:46:43.639Z,11.93
2019-03-28T07:51:38.318Z,13.50
2019-03-28T07:56:32.889Z,12.43
2019-03-28T08:01:27.507Z,11.13
2019-03-28T08:06:22.153Z,11.77
2019-03-28T08:11:16.748Z,10.80
2019-03-28T08:16:11.852Z,10.97
2019-03-28T08:21:09.178Z,10.80
2019-03-28T08:26:16.847Z,8.83
2019-03-28T08:31:12.980Z,9.60
2019-03-28T08:36:07.897Z,9.70
2019-03-28T08:41:02.479Z,7.97
2019-03-28T08:45:57.125Z,8.37
2019-03-28T08:50:52.876Z,8.73
2019-03-28T08:55:48.890Z,6.07
2019-03-28T09:00:53.033Z,6.77
2019-03-28T09:05:47.803Z,7.03
2019-03-28T09:10:42.622Z,7.93
2019-03-28T09:15:43.774Z,7.70
2019-03-28T09:20:34.502Z,7.97
2019-03-28T09:25:29.527Z,8.70
2019-03-28T09:30:49.340Z,5.33
2019-03-28T09:35:43.707Z,4.93
2019-03-28T09:40:42.061Z,4.60
2019-03-28T09:45:37.279Z,4.70
2019-03-28T09:50:35.132Z,6.13
2019-03-28T09:55:36.294Z,4.43
2019-03-28T10:00:34.725Z,3.80
2019-03-28T10:05:38.449Z,2.87
2019-03-28T10:10:34.013Z,2.90
2019-03-28T10:15:28.823Z,3.27
2019-03-28T10:20:23.544Z,3.50
2019-03-28T10:25:18.928Z,3.13
2019-03-28T10:30:15.600Z,3.83
2019-03-28T10:35:13.388Z,3.40
2019-03-28T10:40:09.397Z,3.53
2019-03-28T10:45:05.518Z,3.07
2019-03-28T10:50:04.203Z,3.70
2019-03-28T10:54:57.152Z,3.03
2019-03-28T10:59:51.886Z,3.80
2019-03-28T11:04:46.424Z,3.20
2019-03-28T11:09:41.386Z,2.87
2019-03-28T11:14:36.098Z,2.57
2019-03-28T11:19:30.711Z,2.70
2019-03-28T11:24:25.296Z,3.00
2019-03-28T11:29:20.740Z,3.30
2019-03-28T11:34:15.387Z,3.00
2019-03-28T11:39:10.153Z,2.90
2019-03-28T11:44:04.875Z,2.77
2019-03-28T11:49:00.263Z,2.60
2019-03-28T11:54:02.340Z,2.97
2019-03-28T11:58:57.219Z,2.43
2019-03-28T12:03:51.797Z,2.90
2019-03-28T12:08:46.403Z,2.97
2019-03-28T12:13:45.085Z,2.90
2019-03-28T12:18:37.392Z,2.63
2019-03-28T12:23:32.626Z,3.07
2019-03-28T12:28:27.240Z,3.40
2019-03-28T12:33:23.006Z,2.87
2019-03-28T12:38:17.596Z,2.70
2019-03-28T12:43:12.194Z,3.10
2019-03-28T12:48:06.969Z,3.00
2019-03-28T12:53:03.771Z,2.70
2019-03-28T12:57:58.378Z,3.23
2019-03-28T13:02:52.996Z,2.80
2019-03-28T13:07:47.720Z,2.97
2019-03-28T13:12:42.384Z,3.40
2019-03-28T13:17:37.319Z,4.00
2019-03-28T13:22:31.976Z,3.17
2019-03-28T13:27:26.614Z,3.03
2019-03-28T13:32:21.329Z,3.70
2019-03-28T13:37:16.849Z,3.27
2019-03-28T13:42:12.592Z,3.17
2019-03-28T13:47:07.306Z,3.00
2019-03-28T13:52:02.638Z,2.80
2019-03-28T13:56:57.347Z,2.60
2019-03-28T14:01:52.297Z,2.67
2019-03-28T14:06:51.054Z,3.47
2019-03-28T14:11:46.045Z,2.70
2019-03-28T14:16:41.178Z,3.07
2019-03-28T14:21:35.755Z,2.57
2019-03-28T14:26:30.408Z,2.60
2019-03-28T14:31:25.038Z,2.50
2019-03-28T14:36:19.726Z,3.30
2019-03-28T14:41:15.573Z,3.30
2019-03-28T14:46:10.277Z,3.00
2019-03-28T14:51:05.172Z,3.03
2019-03-28T14:56:03.159Z,3.37
2019-03-28T15:00:57.835Z,3.10
2019-03-28T15:05:53.383Z,4.00
2019-03-28T15:10:49.520Z,3.90
2019-03-28T15:15:45.055Z,3.63
2019-03-28T15:20:39.840Z,3.73
2019-03-28T15:25:34.642Z,4.40
2019-03-28T15:30:29.879Z,3.77
2019-03-28T15:35:24.693Z,4.20
2019-03-28T15:40:19.551Z,4.50
2019-03-28T15:45:14.580Z,5.33
2019-03-28T15:50:09.777Z,4.97
2019-03-28T15:55:05.818Z,4.83
2019-03-28T16:00:04.463Z,4.50
2019-03-28T16:04:59.143Z,4.70
2019-03-28T16:09:53.774Z,4.60
2019-03-28T16:14:48.523Z,4.97
2019-03-28T16:19:45.092Z,5.33
2019-03-28T16:24:39.985Z,5.70
2019-03-28T16:29:36.026Z,5.57
2019-03-28T16:34:30.659Z,4.80
2019-03-28T16:39:25.261Z,5.30
2019-03-28T16:44:19.874Z,5.57
2019-03-28T16:49:15.279Z,5.73
2019-03-28T16:54:09.883Z,5.63
2019-03-28T16:59:04.477Z,5.83
2019-03-28T17:03:59.150Z,5.80
2019-03-28T17:08:54.272Z,5.63
2019-03-28T17:13:48.892Z,5.63
2019-03-28T17:18:43.463Z,5.50
2019-03-28T17:23:38.083Z,5.83
2019-03-28T17:28:32.757Z,5.20
2019-03-28T17:33:27.391Z,4.60
2019-03-28T17:38:22.454Z,5.13
2019-03-28T17:43:17.333Z,5.30
2019-03-28T17:48:11.928Z,6.03
2019-03-28T17:53:06.535Z,5.97
2019-03-28T17:58:01.124Z,6.10
2019-03-28T18:03:08.592Z,5.90
2019-03-28T18:07:52.199Z,6.10
2019-03-28T18:12:46.945Z,5.67
2019-03-28T18:17:41.536Z,6.27
2019-03-28T18:22:39.242Z,6.17
2019-03-28T18:27:33.838Z,6.23
2019-03-28T18:32:28.508Z,6.10
2019-03-28T18:37:23.201Z,6.13
2019-03-28T18:42:17.823Z,5.60
2019-03-28T18:47:12.406Z,6.03
2019-03-28T18:52:07.552Z,6.30
2019-03-28T18:57:03.368Z,5.43
2019-03-28T19:01:58.044Z,5.73
2019-03-28T19:06:52.707Z,6.37
2019-03-28T19:11:47.302Z,6.00
2019-03-28T19:16:42.312Z,5.60
2019-03-28T19:21:36.964Z,5.70
2019-03-28T19:26:31.539Z,6.40
2019-03-28T19:31:26.155Z,5.83
2019-03-28T19:36:22.504Z,6.00
2019-03-28T19:41:17.098Z,5.97
2019-03-28T19:46:11.915Z,6.37
2019-03-28T19:51:07.961Z,6.33
2019-03-28T19:56:03.226Z,5.80
2019-03-28T20:00:57.899Z,6.50
2019-03-28T20:05:52.493Z,6.37
2019-03-28T20:10:47.192Z,6.20
2019-03-28T20:15:41.774Z,6.20
2019-03-28T20:20:36.376Z,6.27
2019-03-28T20:25:30.979Z,6.40
2019-03-28T20:30:25.781Z,6.67
2019-03-28T20:35:20.475Z,6.77
2019-03-28T20:40:17.846Z,6.43
2019-03-28T20:45:14.435Z,6.60
2019-03-28T20:50:11.757Z,5.93
2019-03-28T20:55:07.877Z,6.53
2019-03-28T21:00:02.552Z,6.93
2019-03-28T21:04:57.268Z,6.53
2019-03-28T21:09:52.001Z,6.97
2019-03-28T21:14:46.548Z,7.23
2019-03-28T21:19:41.129Z,7.43
2019-03-28T21:24:35.705Z,6.93
2019-03-28T21:29:33.699Z,7.30
2019-03-28T21:34:26.774Z,7.03
2019-03-28T21:39:21.348Z,7.70
2019-03-28T21:44:15.939Z,8.13
2019-03-28T21:49:10.520Z,7.40
2019-03-28T21:54:05.337Z,7.63
2019-03-28T21:58:59.939Z,8.70
2019-03-28T22:03:54.566Z,8.20
2019-03-28T22:08:49.293Z,8.90
2019-03-28T22:13:43.859Z,8.87
2019-03-28T22:18:38.455Z,8.47
2019-03-28T22:23:33.027Z,9.30
2019-03-28T22:28:27.626Z,8.33
2019-03-28T22:33:22.204Z,9.43
2019-03-28T22:38:16.795Z,8.83
2019-03-28T22:43:11.370Z,9.47
2019-03-28T22:48:11.206Z,9.97
2019-03-28T22:53:02.498Z,9.60
2019-03-28T22:57:57.079Z,9.07
2019-03-28T23:02:51.656Z,9.07
2019-03-28T23:07:46.251Z,9.70
2019-03-28T23:12:41.607Z,10.03
2019-03-28T23:17:36.572Z,9.73
2019-03-28T23:22:31.262Z,9.67
2019-03-28T23:27:27.004Z,9.57
2019-03-28T23:32:21.976Z,8.97
2019-03-28T23:37:24.547Z,9.90
2019-03-28T23:42:13.831Z,9.03
2019-03-28T23:47:08.777Z,9.60
2019-03-28T23:52:03.360Z,9.47
2019-03-28T23:56:58.007Z,10.00
